This is the latest recevied weather packets stored in our database for station/object WC4PEM-14. If no packets are shown the sender has not sent any weather packets the latest 10 day(s).
| Time | Temp. | Humidity | Pressure | Rain* | Wind** | Luminosity | Snow |
|---|---|---|---|---|---|---|---|
| 1778172780 | 32.22° C | 45% | 1014.7 hPa | 0 mm | - | - | - |
| 1778172555 | 32.22° C | 44% | 1014.8 hPa | 0 mm | - | - | - |
| 1778172480 | 32.22° C | 44% | 1014.8 hPa | 0 mm | - | - | - |
| 1778172303 | 31.67° C | 40% | 1015.3 hPa | 0 mm | - | - | - |
| 1778172237 | 32.22° C | 43% | 1015 hPa | 0 mm | - | - | - |
| 1778172180 | 32.22° C | 43% | 1015 hPa | 0 mm | - | - | - |
| 1778171997 | 32.78° C | 42% | 1015 hPa | 0 mm | - | - | - |
| 1778171957 | 32.78° C | 42% | 1015 hPa | 0 mm | - | - | - |
| 1778171880 | 32.78° C | 42% | 1015 hPa | 0 mm | - | - | - |
| 1778171703 | 32.78° C | 42% | 1015.1 hPa | 0 mm | - | - | - |
| 1778171580 | 32.78° C | 42% | 1015.1 hPa | 0 mm | - | - | - |
| 1778171427 | 32.22° C | 42% | 1015.2 hPa | 0 mm | - | - | - |
| 1778171280 | 32.22° C | 42% | 1015.2 hPa | 0 mm | - | - | - |
| 1778170980 | 32.78° C | 39% | 1015.2 hPa | 0 mm | - | - | - |
| 1778170801 | 32.22° C | 40% | 1015.1 hPa | 0 mm | - | - | - |
| 1778170680 | 32.22° C | 40% | 1015.1 hPa | 0 mm | - | - | - |
| 1778170565 | 32.22° C | 40% | 1015.2 hPa | 0 mm | - | - | - |
| 1778170380 | 32.22° C | 40% | 1015.2 hPa | 0 mm | - | - | - |
| 1778170181 | 31.67° C | 40% | 1015.3 hPa | 0 mm | - | - | - |
| 1778170080 | 31.67° C | 40% | 1015.3 hPa | 0 mm | - | - | - |
| 1778169973 | 31.67° C | 40% | 1015.3 hPa | 0 mm | - | - | - |
| 1778169780 | 31.67° C | 40% | 1015.3 hPa | 0 mm | - | - | - |
| 1778169540 | 31.67° C | 40% | 1015.4 hPa | 0 mm | - | - | - |
| 1778169480 | 31.67° C | 40% | 1015.4 hPa | 0 mm | - | - | - |
| 1778169296 | 31.11° C | 43% | 1015.6 hPa | 0 mm | - | - | - |
* Rain latest hour (hover to see other rain measurements)
** Current wind speed in m/s (hover to see current wind gust speed)